sensor_id;sensor_type;location;lat;lon;timestamp;temperature;humidity
26262;DHT22;13988;52.446;13.280;2022-08-21T00:01:26;18.70;99.90
26262;DHT22;13988;52.446;13.280;2022-08-21T00:03:52;18.70;99.90
26262;DHT22;13988;52.446;13.280;2022-08-21T00:06:18;18.80;99.90
26262;DHT22;13988;52.446;13.280;2022-08-21T00:08:47;18.70;99.90
26262;DHT22;13988;52.446;13.280;2022-08-21T00:11:13;18.70;99.90
26262;DHT22;13988;52.446;13.280;2022-08-21T00:13:39;18.70;99.90
26262;DHT22;13988;52.446;13.280;2022-08-21T00:16:05;18.70;99.90
26262;DHT22;13988;52.446;13.280;2022-08-21T00:18:31;18.70;99.90
26262;DHT22;13988;52.446;13.280;2022-08-21T00:20:56;18.70;99.90
26262;DHT22;13988;52.446;13.280;2022-08-21T00:23:22;18.70;99.90
26262;DHT22;13988;52.446;13.280;2022-08-21T00:25:48;18.70;99.90
26262;DHT22;13988;52.446;13.280;2022-08-21T00:28:15;18.70;99.90
26262;DHT22;13988;52.446;13.280;2022-08-21T00:30:41;18.60;99.90
26262;DHT22;13988;52.446;13.280;2022-08-21T00:33:08;18.60;99.90
26262;DHT22;13988;52.446;13.280;2022-08-21T00:35:37;18.60;99.90
26262;DHT22;13988;52.446;13.280;2022-08-21T00:38:04;18.80;99.90
26262;DHT22;13988;52.446;13.280;2022-08-21T00:40:36;18.50;99.90
26262;DHT22;13988;52.446;13.280;2022-08-21T00:43:04;18.50;99.90
26262;DHT22;13988;52.446;13.280;2022-08-21T00:45:31;18.50;99.90
26262;DHT22;13988;52.446;13.280;2022-08-21T00:47:57;18.50;99.90
26262;DHT22;13988;52.446;13.280;2022-08-21T00:50:28;18.40;99.90
26262;DHT22;13988;52.446;13.280;2022-08-21T00:52:55;18.30;99.90
26262;DHT22;13988;52.446;13.280;2022-08-21T00:55:22;18.30;99.90
26262;DHT22;13988;52.446;13.280;2022-08-21T00:57:52;18.30;99.90
26262;DHT22;13988;52.446;13.280;2022-08-21T01:00:25;18.50;99.90
26262;DHT22;13988;52.446;13.280;2022-08-21T01:02:53;18.10;99.90
26262;DHT22;13988;52.446;13.280;2022-08-21T01:05:18;18.20;99.90
26262;DHT22;13988;52.446;13.280;2022-08-21T01:07:44;18.20;99.90
26262;DHT22;13988;52.446;13.280;2022-08-21T01:10:10;18.20;99.90
26262;DHT22;13988;52.446;13.280;2022-08-21T01:12:36;18.20;99.90
26262;DHT22;13988;52.446;13.280;2022-08-21T01:15:04;18.20;99.90
26262;DHT22;13988;52.446;13.280;2022-08-21T01:17:30;18.10;99.90
26262;DHT22;13988;52.446;13.280;2022-08-21T01:20:03;18.10;99.90
26262;DHT22;13988;52.446;13.280;2022-08-21T01:22:30;18.20;99.90
26262;DHT22;13988;52.446;13.280;2022-08-21T01:24:55;18.20;99.90
26262;DHT22;13988;52.446;13.280;2022-08-21T01:27:21;18.10;99.90
26262;DHT22;13988;52.446;13.280;2022-08-21T01:29:57;18.10;99.90
26262;DHT22;13988;52.446;13.280;2022-08-21T01:32:24;18.10;99.90
26262;DHT22;13988;52.446;13.280;2022-08-21T01:34:51;18.10;99.90
26262;DHT22;13988;52.446;13.280;2022-08-21T01:37:18;18.10;99.90
26262;DHT22;13988;52.446;13.280;2022-08-21T01:39:45;18.10;99.90
26262;DHT22;13988;52.446;13.280;2022-08-21T01:42:12;18.10;99.90
26262;DHT22;13988;52.446;13.280;2022-08-21T01:44:39;18.00;99.90
26262;DHT22;13988;52.446;13.280;2022-08-21T01:47:07;18.00;99.90
26262;DHT22;13988;52.446;13.280;2022-08-21T01:49:34;17.90;99.90
26262;DHT22;13988;52.446;13.280;2022-08-21T01:52:00;17.90;99.90
26262;DHT22;13988;52.446;13.280;2022-08-21T01:54:27;17.80;99.90
26262;DHT22;13988;52.446;13.280;2022-08-21T01:56:53;18.00;99.90
26262;DHT22;13988;52.446;13.280;2022-08-21T01:59:23;17.80;99.90
26262;DHT22;13988;52.446;13.280;2022-08-21T02:01:49;17.80;99.90
26262;DHT22;13988;52.446;13.280;2022-08-21T02:04:15;17.70;99.90
26262;DHT22;13988;52.446;13.280;2022-08-21T02:06:41;17.80;99.90
26262;DHT22;13988;52.446;13.280;2022-08-21T02:09:09;17.80;99.90
26262;DHT22;13988;52.446;13.280;2022-08-21T02:11:36;17.80;99.90
26262;DHT22;13988;52.446;13.280;2022-08-21T02:14:02;17.70;99.90
26262;DHT22;13988;52.446;13.280;2022-08-21T02:16:28;17.70;99.90
26262;DHT22;13988;52.446;13.280;2022-08-21T02:18:53;17.90;99.90
26262;DHT22;13988;52.446;13.280;2022-08-21T02:21:19;17.80;99.90
26262;DHT22;13988;52.446;13.280;2022-08-21T02:23:45;17.70;99.90
26262;DHT22;13988;52.446;13.280;2022-08-21T02:26:11;17.60;99.90
26262;DHT22;13988;52.446;13.280;2022-08-21T02:28:37;17.60;99.90
26262;DHT22;13988;52.446;13.280;2022-08-21T02:31:04;17.60;99.90
26262;DHT22;13988;52.446;13.280;2022-08-21T02:33:30;17.50;99.90
26262;DHT22;13988;52.446;13.280;2022-08-21T02:35:56;17.50;99.90
26262;DHT22;13988;52.446;13.280;2022-08-21T02:38:26;17.40;99.90
26262;DHT22;13988;52.446;13.280;2022-08-21T02:40:52;17.40;99.90
26262;DHT22;13988;52.446;13.280;2022-08-21T02:43:20;17.40;99.90
26262;DHT22;13988;52.446;13.280;2022-08-21T02:45:48;17.50;99.90
26262;DHT22;13988;52.446;13.280;2022-08-21T02:48:17;17.50;99.90
26262;DHT22;13988;52.446;13.280;2022-08-21T02:50:50;17.50;99.90
26262;DHT22;13988;52.446;13.280;2022-08-21T02:53:17;17.50;99.90
26262;DHT22;13988;52.446;13.280;2022-08-21T02:55:44;17.50;99.90
26262;DHT22;13988;52.446;13.280;2022-08-21T02:58:11;17.30;99.90
26262;DHT22;13988;52.446;13.280;2022-08-21T03:00:38;17.30;99.90
26262;DHT22;13988;52.446;13.280;2022-08-21T03:03:04;17.40;99.90
26262;DHT22;13988;52.446;13.280;2022-08-21T03:05:32;17.40;99.90
26262;DHT22;13988;52.446;13.280;2022-08-21T03:08:00;17.30;99.90
26262;DHT22;13988;52.446;13.280;2022-08-21T03:10:26;17.10;99.90
26262;DHT22;13988;52.446;13.280;2022-08-21T03:12:52;17.20;99.90
26262;DHT22;13988;52.446;13.280;2022-08-21T03:15:21;17.20;99.90
26262;DHT22;13988;52.446;13.280;2022-08-21T03:17:47;17.20;99.90
26262;DHT22;13988;52.446;13.280;2022-08-21T03:20:15;17.20;99.90
26262;DHT22;13988;52.446;13.280;2022-08-21T03:22:41;17.20;99.90
26262;DHT22;13988;52.446;13.280;2022-08-21T03:25:08;17.00;99.90
26262;DHT22;13988;52.446;13.280;2022-08-21T03:27:34;17.00;99.90
26262;DHT22;13988;52.446;13.280;2022-08-21T03:30:00;17.00;99.90
26262;DHT22;13988;52.446;13.280;2022-08-21T03:32:26;17.10;99.90
26262;DHT22;13988;52.446;13.280;2022-08-21T03:34:52;17.20;99.90
26262;DHT22;13988;52.446;13.280;2022-08-21T03:37:18;17.10;99.90
26262;DHT22;13988;52.446;13.280;2022-08-21T03:39:44;17.10;99.90
26262;DHT22;13988;52.446;13.280;2022-08-21T03:42:10;17.10;99.90
26262;DHT22;13988;52.446;13.280;2022-08-21T03:44:36;17.00;99.90
26262;DHT22;13988;52.446;13.280;2022-08-21T03:47:03;16.90;99.90
26262;DHT22;13988;52.446;13.280;2022-08-21T03:49:29;17.00;99.90
26262;DHT22;13988;52.446;13.280;2022-08-21T03:51:54;17.00;99.90
26262;DHT22;13988;52.446;13.280;2022-08-21T03:54:20;17.00;99.90
26262;DHT22;13988;52.446;13.280;2022-08-21T03:56:46;16.90;99.90
26262;DHT22;13988;52.446;13.280;2022-08-21T03:59:13;16.90;99.90
26262;DHT22;13988;52.446;13.280;2022-08-21T04:01:39;16.80;99.90
26262;DHT22;13988;52.446;13.280;2022-08-21T04:04:05;16.80;99.90
26262;DHT22;13988;52.446;13.280;2022-08-21T04:06:32;16.70;99.90
26262;DHT22;13988;52.446;13.280;2022-08-21T04:08:57;16.70;99.90
26262;DHT22;13988;52.446;13.280;2022-08-21T04:11:23;16.70;99.90
26262;DHT22;13988;52.446;13.280;2022-08-21T04:13:49;16.70;99.90
26262;DHT22;13988;52.446;13.280;2022-08-21T04:16:15;16.70;99.90
26262;DHT22;13988;52.446;13.280;2022-08-21T04:18:40;16.70;99.90
26262;DHT22;13988;52.446;13.280;2022-08-21T04:21:08;16.60;99.90
26262;DHT22;13988;52.446;13.280;2022-08-21T04:23:36;16.60;99.90
26262;DHT22;13988;52.446;13.280;2022-08-21T04:26:02;16.70;99.90
26262;DHT22;13988;52.446;13.280;2022-08-21T04:28:28;16.60;99.90
26262;DHT22;13988;52.446;13.280;2022-08-21T04:30:54;16.60;99.90
26262;DHT22;13988;52.446;13.280;2022-08-21T04:33:21;16.70;99.90
26262;DHT22;13988;52.446;13.280;2022-08-21T04:35:47;16.80;99.90
26262;DHT22;13988;52.446;13.280;2022-08-21T04:38:13;16.80;99.90
26262;DHT22;13988;52.446;13.280;2022-08-21T04:40:38;16.70;99.90
26262;DHT22;13988;52.446;13.280;2022-08-21T04:43:08;16.70;99.90
26262;DHT22;13988;52.446;13.280;2022-08-21T04:45:40;16.70;99.90
26262;DHT22;13988;52.446;13.280;2022-08-21T04:48:08;16.80;99.90
26262;DHT22;13988;52.446;13.280;2022-08-21T04:50:39;16.50;99.90
26262;DHT22;13988;52.446;13.280;2022-08-21T04:53:10;16.50;99.90
26262;DHT22;13988;52.446;13.280;2022-08-21T04:55:37;16.50;99.90
26262;DHT22;13988;52.446;13.280;2022-08-21T04:58:05;16.40;99.90
26262;DHT22;13988;52.446;13.280;2022-08-21T05:00:32;16.50;99.90
26262;DHT22;13988;52.446;13.280;2022-08-21T05:02:58;16.60;99.90
26262;DHT22;13988;52.446;13.280;2022-08-21T05:05:25;16.60;99.90
26262;DHT22;13988;52.446;13.280;2022-08-21T05:07:51;16.70;99.90
26262;DHT22;13988;52.446;13.280;2022-08-21T05:10:17;16.50;99.90
26262;DHT22;13988;52.446;13.280;2022-08-21T05:12:44;16.60;99.90
26262;DHT22;13988;52.446;13.280;2022-08-21T05:15:11;16.60;99.90
26262;DHT22;13988;52.446;13.280;2022-08-21T05:17:37;16.40;99.90
26262;DHT22;13988;52.446;13.280;2022-08-21T05:20:03;16.50;99.90
26262;DHT22;13988;52.446;13.280;2022-08-21T05:22:29;16.50;99.90
26262;DHT22;13988;52.446;13.280;2022-08-21T05:24:56;16.60;99.90
26262;DHT22;13988;52.446;13.280;2022-08-21T05:27:22;16.60;99.90
26262;DHT22;13988;52.446;13.280;2022-08-21T05:29:47;16.50;99.90
26262;DHT22;13988;52.446;13.280;2022-08-21T05:32:13;16.60;99.90
26262;DHT22;13988;52.446;13.280;2022-08-21T05:34:39;16.60;99.90
26262;DHT22;13988;52.446;13.280;2022-08-21T05:37:05;16.70;99.90
26262;DHT22;13988;52.446;13.280;2022-08-21T05:39:31;16.50;99.90
26262;DHT22;13988;52.446;13.280;2022-08-21T05:41:58;16.60;99.90
26262;DHT22;13988;52.446;13.280;2022-08-21T05:44:23;16.70;99.90
26262;DHT22;13988;52.446;13.280;2022-08-21T05:46:49;16.80;99.90
26262;DHT22;13988;52.446;13.280;2022-08-21T05:49:15;16.70;99.90
26262;DHT22;13988;52.446;13.280;2022-08-21T05:51:41;16.80;99.90
26262;DHT22;13988;52.446;13.280;2022-08-21T05:54:07;16.80;99.90
26262;DHT22;13988;52.446;13.280;2022-08-21T05:56:33;16.70;99.90
26262;DHT22;13988;52.446;13.280;2022-08-21T05:58:59;17.00;99.90
26262;DHT22;13988;52.446;13.280;2022-08-21T06:01:25;16.90;99.90
26262;DHT22;13988;52.446;13.280;2022-08-21T06:03:51;16.90;99.90
26262;DHT22;13988;52.446;13.280;2022-08-21T06:06:16;16.80;99.90
26262;DHT22;13988;52.446;13.280;2022-08-21T06:08:42;16.90;99.90
26262;DHT22;13988;52.446;13.280;2022-08-21T06:11:09;16.90;99.90
26262;DHT22;13988;52.446;13.280;2022-08-21T06:13:36;16.80;99.90
26262;DHT22;13988;52.446;13.280;2022-08-21T06:16:09;16.70;99.90
26262;DHT22;13988;52.446;13.280;2022-08-21T06:18:36;16.70;99.90
26262;DHT22;13988;52.446;13.280;2022-08-21T06:21:03;16.80;99.90
26262;DHT22;13988;52.446;13.280;2022-08-21T06:23:29;16.80;99.90
26262;DHT22;13988;52.446;13.280;2022-08-21T06:25:55;16.90;99.90
26262;DHT22;13988;52.446;13.280;2022-08-21T06:28:20;17.00;99.90
26262;DHT22;13988;52.446;13.280;2022-08-21T06:30:46;17.10;99.90
26262;DHT22;13988;52.446;13.280;2022-08-21T06:33:12;17.20;99.90
26262;DHT22;13988;52.446;13.280;2022-08-21T06:35:37;17.10;99.90
26262;DHT22;13988;52.446;13.280;2022-08-21T06:38:03;17.10;99.90
26262;DHT22;13988;52.446;13.280;2022-08-21T06:40:30;17.10;99.90
26262;DHT22;13988;52.446;13.280;2022-08-21T06:42:57;17.10;99.90
26262;DHT22;13988;52.446;13.280;2022-08-21T06:45:23;17.20;99.90
26262;DHT22;13988;52.446;13.280;2022-08-21T06:47:52;17.30;99.90
26262;DHT22;13988;52.446;13.280;2022-08-21T06:50:18;17.40;99.90
26262;DHT22;13988;52.446;13.280;2022-08-21T06:52:44;17.40;99.90
26262;DHT22;13988;52.446;13.280;2022-08-21T06:55:10;17.70;99.90
26262;DHT22;13988;52.446;13.280;2022-08-21T06:57:36;17.80;99.90
26262;DHT22;13988;52.446;13.280;2022-08-21T07:00:05;18.10;99.90
26262;DHT22;13988;52.446;13.280;2022-08-21T07:02:32;18.10;99.90
26262;DHT22;13988;52.446;13.280;2022-08-21T07:04:58;18.20;99.90
26262;DHT22;13988;52.446;13.280;2022-08-21T07:07:24;18.50;99.90
26262;DHT22;13988;52.446;13.280;2022-08-21T07:09:50;18.70;99.90
26262;DHT22;13988;52.446;13.280;2022-08-21T07:12:15;18.80;99.90
26262;DHT22;13988;52.446;13.280;2022-08-21T07:14:41;19.10;99.90
26262;DHT22;13988;52.446;13.280;2022-08-21T07:17:07;19.20;99.90
26262;DHT22;13988;52.446;13.280;2022-08-21T07:19:33;18.90;99.90
26262;DHT22;13988;52.446;13.280;2022-08-21T07:22:04;19.30;99.90
26262;DHT22;13988;52.446;13.280;2022-08-21T07:24:30;19.30;99.90
26262;DHT22;13988;52.446;13.280;2022-08-21T07:26:55;19.10;99.90
26262;DHT22;13988;52.446;13.280;2022-08-21T07:29:21;19.30;99.90
26262;DHT22;13988;52.446;13.280;2022-08-21T07:31:50;19.40;99.90
26262;DHT22;13988;52.446;13.280;2022-08-21T07:34:16;19.60;99.90
26262;DHT22;13988;52.446;13.280;2022-08-21T07:36:41;19.50;99.90
26262;DHT22;13988;52.446;13.280;2022-08-21T07:39:08;19.60;99.90
26262;DHT22;13988;52.446;13.280;2022-08-21T07:41:33;19.40;99.90
26262;DHT22;13988;52.446;13.280;2022-08-21T07:44:01;19.40;99.90
26262;DHT22;13988;52.446;13.280;2022-08-21T07:46:27;19.50;99.90
26262;DHT22;13988;52.446;13.280;2022-08-21T07:48:53;19.30;99.90
26262;DHT22;13988;52.446;13.280;2022-08-21T07:51:22;19.50;99.90
26262;DHT22;13988;52.446;13.280;2022-08-21T07:53:50;19.60;99.90
26262;DHT22;13988;52.446;13.280;2022-08-21T07:56:16;19.60;99.90
26262;DHT22;13988;52.446;13.280;2022-08-21T07:58:43;19.60;99.90
26262;DHT22;13988;52.446;13.280;2022-08-21T08:01:08;19.40;99.90
26262;DHT22;13988;52.446;13.280;2022-08-21T08:03:35;19.50;99.90
26262;DHT22;13988;52.446;13.280;2022-08-21T08:06:01;19.60;99.90
26262;DHT22;13988;52.446;13.280;2022-08-21T08:08:29;19.50;99.90
26262;DHT22;13988;52.446;13.280;2022-08-21T08:10:56;19.70;99.90
26262;DHT22;13988;52.446;13.280;2022-08-21T08:13:22;19.60;99.90
26262;DHT22;13988;52.446;13.280;2022-08-21T08:15:48;19.90;99.90
26262;DHT22;13988;52.446;13.280;2022-08-21T08:18:14;20.10;99.90
26262;DHT22;13988;52.446;13.280;2022-08-21T08:20:40;20.20;99.90
26262;DHT22;13988;52.446;13.280;2022-08-21T08:23:07;20.00;99.90
26262;DHT22;13988;52.446;13.280;2022-08-21T08:25:32;19.90;99.90
26262;DHT22;13988;52.446;13.280;2022-08-21T08:27:58;20.10;99.90
26262;DHT22;13988;52.446;13.280;2022-08-21T08:30:23;20.20;99.90
26262;DHT22;13988;52.446;13.280;2022-08-21T08:32:49;20.30;99.90
26262;DHT22;13988;52.446;13.280;2022-08-21T08:35:15;20.00;99.90
26262;DHT22;13988;52.446;13.280;2022-08-21T08:37:42;20.10;99.90
26262;DHT22;13988;52.446;13.280;2022-08-21T08:40:22;20.30;99.90
26262;DHT22;13988;52.446;13.280;2022-08-21T08:42:50;20.00;99.90
26262;DHT22;13988;52.446;13.280;2022-08-21T08:45:19;20.10;99.90
26262;DHT22;13988;52.446;13.280;2022-08-21T08:47:51;20.30;99.90
26262;DHT22;13988;52.446;13.280;2022-08-21T08:50:28;20.10;99.90
26262;DHT22;13988;52.446;13.280;2022-08-21T08:53:02;20.00;99.90
26262;DHT22;13988;52.446;13.280;2022-08-21T08:55:48;20.40;99.90
26262;DHT22;13988;52.446;13.280;2022-08-21T08:58:23;20.50;99.90
26262;DHT22;13988;52.446;13.280;2022-08-21T09:00:51;20.40;99.90
26262;DHT22;13988;52.446;13.280;2022-08-21T09:03:18;20.60;99.90
26262;DHT22;13988;52.446;13.280;2022-08-21T09:08:57;20.70;99.90
26262;DHT22;13988;52.446;13.280;2022-08-21T09:19:51;20.80;99.90
26262;DHT22;13988;52.446;13.280;2022-08-21T09:25:27;20.70;99.90
26262;DHT22;13988;52.446;13.280;2022-08-21T09:27:56;20.60;99.90
26262;DHT22;13988;52.446;13.280;2022-08-21T09:30:26;20.60;99.90
26262;DHT22;13988;52.446;13.280;2022-08-21T09:32:53;20.80;99.90
26262;DHT22;13988;52.446;13.280;2022-08-21T09:35:21;20.60;99.90
26262;DHT22;13988;52.446;13.280;2022-08-21T09:38:04;20.70;99.90
26262;DHT22;13988;52.446;13.280;2022-08-21T09:40:44;21.00;99.90
26262;DHT22;13988;52.446;13.280;2022-08-21T09:43:22;20.90;99.90
26262;DHT22;13988;52.446;13.280;2022-08-21T09:46:00;21.10;99.90
26262;DHT22;13988;52.446;13.280;2022-08-21T09:48:26;21.00;99.90
26262;DHT22;13988;52.446;13.280;2022-08-21T09:50:53;21.20;99.90
26262;DHT22;13988;52.446;13.280;2022-08-21T09:53:20;21.80;99.90
26262;DHT22;13988;52.446;13.280;2022-08-21T09:55:55;21.90;99.90
26262;DHT22;13988;52.446;13.280;2022-08-21T09:58:43;22.10;99.90
26262;DHT22;13988;52.446;13.280;2022-08-21T10:01:20;21.80;99.90
26262;DHT22;13988;52.446;13.280;2022-08-21T10:03:47;21.60;99.90
26262;DHT22;13988;52.446;13.280;2022-08-21T10:06:24;21.60;99.90
26262;DHT22;13988;52.446;13.280;2022-08-21T10:08:51;21.80;99.90
26262;DHT22;13988;52.446;13.280;2022-08-21T10:11:31;21.90;99.90
26262;DHT22;13988;52.446;13.280;2022-08-21T10:14:07;21.80;99.90
26262;DHT22;13988;52.446;13.280;2022-08-21T10:27:39;22.30;99.90
26262;DHT22;13988;52.446;13.280;2022-08-21T10:30:07;22.30;99.90
26262;DHT22;13988;52.446;13.280;2022-08-21T10:32:52;22.40;99.90
26262;DHT22;13988;52.446;13.280;2022-08-21T10:35:26;22.20;99.90
26262;DHT22;13988;52.446;13.280;2022-08-21T10:38:39;22.30;99.90
26262;DHT22;13988;52.446;13.280;2022-08-21T10:52:28;22.70;99.90
26262;DHT22;13988;52.446;13.280;2022-08-21T10:55:10;22.30;99.90
26262;DHT22;13988;52.446;13.280;2022-08-21T10:57:47;22.20;99.90
26262;DHT22;13988;52.446;13.280;2022-08-21T11:00:23;22.50;99.90
26262;DHT22;13988;52.446;13.280;2022-08-21T11:03:17;22.60;99.90
26262;DHT22;13988;52.446;13.280;2022-08-21T11:05:52;22.90;99.90
26262;DHT22;13988;52.446;13.280;2022-08-21T11:08:23;22.60;99.90
26262;DHT22;13988;52.446;13.280;2022-08-21T11:11:06;22.80;99.90
26262;DHT22;13988;52.446;13.280;2022-08-21T11:13:45;23.10;99.90
26262;DHT22;13988;52.446;13.280;2022-08-21T11:16:37;23.00;95.30
26262;DHT22;13988;52.446;13.280;2022-08-21T11:19:13;23.20;94.50
26262;DHT22;13988;52.446;13.280;2022-08-21T11:27:30;23.10;91.20
26262;DHT22;13988;52.446;13.280;2022-08-21T11:30:02;23.40;90.40
26262;DHT22;13988;52.446;13.280;2022-08-21T11:36:15;23.60;90.10
26262;DHT22;13988;52.446;13.280;2022-08-21T11:38:46;24.20;92.00
26262;DHT22;13988;52.446;13.280;2022-08-21T11:41:34;24.20;90.90
26262;DHT22;13988;52.446;13.280;2022-08-21T11:47:54;24.00;90.10
26262;DHT22;13988;52.446;13.280;2022-08-21T11:50:28;24.00;90.40
26262;DHT22;13988;52.446;13.280;2022-08-21T11:53:07;23.40;88.90
26262;DHT22;13988;52.446;13.280;2022-08-21T11:55:42;23.60;88.60
26262;DHT22;13988;52.446;13.280;2022-08-21T11:58:26;24.00;91.20
26262;DHT22;13988;52.446;13.280;2022-08-21T12:01:33;24.60;89.40
26262;DHT22;13988;52.446;13.280;2022-08-21T12:04:08;23.50;88.20
26262;DHT22;13988;52.446;13.280;2022-08-21T12:06:40;24.80;91.20
26262;DHT22;13988;52.446;13.280;2022-08-21T12:09:10;25.10;91.50
26262;DHT22;13988;52.446;13.280;2022-08-21T12:12:00;24.70;80.60
26262;DHT22;13988;52.446;13.280;2022-08-21T12:14:40;23.60;86.10
26262;DHT22;13988;52.446;13.280;2022-08-21T12:17:17;23.40;89.40
26262;DHT22;13988;52.446;13.280;2022-08-21T12:19:43;23.30;86.80
26262;DHT22;13988;52.446;13.280;2022-08-21T12:22:12;25.10;90.80
26262;DHT22;13988;52.446;13.280;2022-08-21T12:24:50;25.10;86.50
26262;DHT22;13988;52.446;13.280;2022-08-21T12:27:30;26.20;80.10
26262;DHT22;13988;52.446;13.280;2022-08-21T12:35:25;25.90;80.00
26262;DHT22;13988;52.446;13.280;2022-08-21T12:38:06;26.00;75.10
26262;DHT22;13988;52.446;13.280;2022-08-21T12:40:40;24.90;76.20
26262;DHT22;13988;52.446;13.280;2022-08-21T12:43:16;24.30;80.90
26262;DHT22;13988;52.446;13.280;2022-08-21T12:45:54;24.40;79.30
26262;DHT22;13988;52.446;13.280;2022-08-21T12:48:41;25.00;79.00
26262;DHT22;13988;52.446;13.280;2022-08-21T12:51:14;24.90;74.10
26262;DHT22;13988;52.446;13.280;2022-08-21T12:53:56;24.20;78.80
26262;DHT22;13988;52.446;13.280;2022-08-21T12:56:24;24.70;80.50
26262;DHT22;13988;52.446;13.280;2022-08-21T12:58:56;24.40;80.90
26262;DHT22;13988;52.446;13.280;2022-08-21T13:01:30;24.70;84.60
26262;DHT22;13988;52.446;13.280;2022-08-21T13:04:02;25.60;82.50
26262;DHT22;13988;52.446;13.280;2022-08-21T13:06:32;24.60;78.20
26262;DHT22;13988;52.446;13.280;2022-08-21T13:09:08;23.60;85.70
26262;DHT22;13988;52.446;13.280;2022-08-21T13:11:35;23.40;86.30
26262;DHT22;13988;52.446;13.280;2022-08-21T13:14:04;24.00;87.10
26262;DHT22;13988;52.446;13.280;2022-08-21T13:16:30;23.90;84.20
26262;DHT22;13988;52.446;13.280;2022-08-21T13:19:03;24.50;88.20
26262;DHT22;13988;52.446;13.280;2022-08-21T13:21:33;24.60;85.60
26262;DHT22;13988;52.446;13.280;2022-08-21T13:24:30;23.70;89.00
26262;DHT22;13988;52.446;13.280;2022-08-21T13:26:57;24.20;90.90
26262;DHT22;13988;52.446;13.280;2022-08-21T13:29:27;24.10;90.80
26262;DHT22;13988;52.446;13.280;2022-08-21T13:32:01;23.60;91.10
26262;DHT22;13988;52.446;13.280;2022-08-21T13:34:53;25.70;88.30
26262;DHT22;13988;52.446;13.280;2022-08-21T13:37:29;26.20;84.20
26262;DHT22;13988;52.446;13.280;2022-08-21T13:40:23;25.40;83.80
26262;DHT22;13988;52.446;13.280;2022-08-21T13:43:18;23.80;89.30
26262;DHT22;13988;52.446;13.280;2022-08-21T13:45:49;24.00;91.70
26262;DHT22;13988;52.446;13.280;2022-08-21T13:48:15;24.30;91.20
26262;DHT22;13988;52.446;13.280;2022-08-21T13:50:42;24.40;91.10
26262;DHT22;13988;52.446;13.280;2022-08-21T13:53:22;24.20;91.60
26262;DHT22;13988;52.446;13.280;2022-08-21T13:55:48;24.20;92.80
26262;DHT22;13988;52.446;13.280;2022-08-21T13:58:27;23.60;95.50
26262;DHT22;13988;52.446;13.280;2022-08-21T14:00:55;23.20;96.00
26262;DHT22;13988;52.446;13.280;2022-08-21T14:03:45;23.30;99.90
26262;DHT22;13988;52.446;13.280;2022-08-21T14:07:13;23.10;99.90
26262;DHT22;13988;52.446;13.280;2022-08-21T14:09:41;23.30;98.60
26262;DHT22;13988;52.446;13.280;2022-08-21T14:17:54;24.10;98.80
26262;DHT22;13988;52.446;13.280;2022-08-21T14:20:34;24.30;92.70
26262;DHT22;13988;52.446;13.280;2022-08-21T14:23:01;24.60;93.60
26262;DHT22;13988;52.446;13.280;2022-08-21T14:25:47;24.60;93.60
26262;DHT22;13988;52.446;13.280;2022-08-21T14:28:37;25.10;91.20
26262;DHT22;13988;52.446;13.280;2022-08-21T14:31:19;25.10;86.90
26262;DHT22;13988;52.446;13.280;2022-08-21T14:33:45;25.30;88.00
26262;DHT22;13988;52.446;13.280;2022-08-21T14:39:20;25.30;86.80
26262;DHT22;13988;52.446;13.280;2022-08-21T14:41:47;25.10;86.60
26262;DHT22;13988;52.446;13.280;2022-08-21T14:44:15;24.40;89.40
26262;DHT22;13988;52.446;13.280;2022-08-21T14:46:41;24.10;90.50
26262;DHT22;13988;52.446;13.280;2022-08-21T14:49:17;24.10;90.90
26262;DHT22;13988;52.446;13.280;2022-08-21T14:51:51;24.00;91.70
26262;DHT22;13988;52.446;13.280;2022-08-21T14:54:23;24.00;92.80
26262;DHT22;13988;52.446;13.280;2022-08-21T14:56:49;23.70;92.30
26262;DHT22;13988;52.446;13.280;2022-08-21T14:59:16;23.50;93.30
26262;DHT22;13988;52.446;13.280;2022-08-21T15:01:42;23.60;94.00
26262;DHT22;13988;52.446;13.280;2022-08-21T15:04:08;23.50;93.40
26262;DHT22;13988;52.446;13.280;2022-08-21T15:06:34;23.30;92.70
26262;DHT22;13988;52.446;13.280;2022-08-21T15:09:00;23.30;93.80
26262;DHT22;13988;52.446;13.280;2022-08-21T15:11:28;23.30;93.70
26262;DHT22;13988;52.446;13.280;2022-08-21T15:14:02;23.40;93.90
26262;DHT22;13988;52.446;13.280;2022-08-21T15:16:30;23.50;93.20
26262;DHT22;13988;52.446;13.280;2022-08-21T15:18:57;23.30;96.70
26262;DHT22;13988;52.446;13.280;2022-08-21T15:21:43;23.50;95.20
26262;DHT22;13988;52.446;13.280;2022-08-21T15:24:09;23.30;97.50
26262;DHT22;13988;52.446;13.280;2022-08-21T15:26:35;23.00;97.40
26262;DHT22;13988;52.446;13.280;2022-08-21T15:29:02;22.90;96.20
26262;DHT22;13988;52.446;13.280;2022-08-21T15:31:28;23.10;97.90
26262;DHT22;13988;52.446;13.280;2022-08-21T15:33:54;23.10;96.20
26262;DHT22;13988;52.446;13.280;2022-08-21T15:36:20;23.20;98.00
26262;DHT22;13988;52.446;13.280;2022-08-21T15:38:46;23.00;97.10
26262;DHT22;13988;52.446;13.280;2022-08-21T15:41:12;22.80;99.90
26262;DHT22;13988;52.446;13.280;2022-08-21T15:43:48;23.00;99.90
26262;DHT22;13988;52.446;13.280;2022-08-21T15:46:16;23.20;99.30
26262;DHT22;13988;52.446;13.280;2022-08-21T15:48:43;23.40;98.80
26262;DHT22;13988;52.446;13.280;2022-08-21T15:51:12;23.10;97.10
26262;DHT22;13988;52.446;13.280;2022-08-21T15:53:39;23.30;98.10
26262;DHT22;13988;52.446;13.280;2022-08-21T15:56:26;23.20;97.70
26262;DHT22;13988;52.446;13.280;2022-08-21T15:58:58;22.90;99.90
26262;DHT22;13988;52.446;13.280;2022-08-21T16:01:24;22.70;99.90
26262;DHT22;13988;52.446;13.280;2022-08-21T16:03:52;22.60;99.90
26262;DHT22;13988;52.446;13.280;2022-08-21T16:06:19;22.50;99.90
26262;DHT22;13988;52.446;13.280;2022-08-21T16:08:45;22.60;99.90
26262;DHT22;13988;52.446;13.280;2022-08-21T16:11:13;22.50;99.90
26262;DHT22;13988;52.446;13.280;2022-08-21T16:13:41;22.40;99.90
26262;DHT22;13988;52.446;13.280;2022-08-21T16:16:17;22.40;99.90
26262;DHT22;13988;52.446;13.280;2022-08-21T16:18:52;22.70;99.90
26262;DHT22;13988;52.446;13.280;2022-08-21T16:21:18;22.80;99.90
26262;DHT22;13988;52.446;13.280;2022-08-21T16:23:44;22.70;99.90
26262;DHT22;13988;52.446;13.280;2022-08-21T16:26:15;22.70;99.90
26262;DHT22;13988;52.446;13.280;2022-08-21T16:28:42;22.50;99.90
26262;DHT22;13988;52.446;13.280;2022-08-21T16:31:11;22.40;99.90
26262;DHT22;13988;52.446;13.280;2022-08-21T16:33:42;22.30;99.90
26262;DHT22;13988;52.446;13.280;2022-08-21T16:36:09;22.30;99.90